Terminal Aerodrome Forecast
Issued by NWS Blacksburg, VA

Home | Current Version | Previous Version | Text Only | Print | Product List | Glossary On
Versions: 1 2 3 4 5 6 7 8 9 10 11 12
000
FTUS41 KRNK 251727
TAFROA
TAF
KROA 251727Z 2518/2618 10006KT P6SM OVC014
     FM252100 11006KT P6SM BKN035
     FM260300 11004KT P6SM OVC015
     FM261500 15004KT P6SM SCT007 OVC015=

USA.gov is the U.S. government's official web portal to all federal, state and local government web resources and services.